createdAt,value
2023-03-06T00:02:01.183Z,7.46
2023-03-06T00:04:27.834Z,7.51
2023-03-06T00:06:54.557Z,7.45
2023-03-06T00:09:22.352Z,7.39
2023-03-06T00:11:49.027Z,7.48
2023-03-06T00:14:15.691Z,7.42
2023-03-06T00:16:42.603Z,7.45
2023-03-06T00:19:09.254Z,7.46
2023-03-06T00:21:35.918Z,7.40
2023-03-06T00:24:02.562Z,7.47
2023-03-06T00:26:29.200Z,7.48
2023-03-06T00:28:55.906Z,7.42
2023-03-06T00:31:22.619Z,7.40
2023-03-06T00:33:49.302Z,7.46
2023-03-06T00:36:15.977Z,7.39
2023-03-06T00:38:42.608Z,7.38
2023-03-06T00:41:10.090Z,7.37
2023-03-06T00:43:36.983Z,7.32
2023-03-06T00:46:03.725Z,7.16
2023-03-06T00:48:30.356Z,7.22
2023-03-06T00:50:57.172Z,7.21
2023-03-06T00:53:23.913Z,7.22
2023-03-06T00:55:50.878Z,7.17
2023-03-06T00:58:17.639Z,7.08
2023-03-06T01:00:44.393Z,7.18
2023-03-06T01:03:11.190Z,7.17
2023-03-06T01:05:38.220Z,7.18
2023-03-06T01:08:05.308Z,7.14
2023-03-06T01:10:32.203Z,7.14
2023-03-06T01:12:58.890Z,7.05
2023-03-06T01:15:25.719Z,7.04
2023-03-06T01:17:53.383Z,6.98
2023-03-06T01:20:20.070Z,6.97
2023-03-06T01:22:46.706Z,6.98
2023-03-06T01:25:13.328Z,6.97
2023-03-06T01:27:40.120Z,7.06
2023-03-06T01:30:07.297Z,7.11
2023-03-06T01:32:33.992Z,7.11
2023-03-06T01:35:00.688Z,7.14
2023-03-06T01:37:27.322Z,7.14
2023-03-06T01:39:53.991Z,7.11
2023-03-06T01:42:20.748Z,7.08
2023-03-06T01:45:16.791Z,7.08
2023-03-06T01:47:43.498Z,7.04
2023-03-06T01:50:10.445Z,7.03
2023-03-06T01:52:42.957Z,7.02
2023-03-06T01:55:15.645Z,7.00
2023-03-06T01:57:46.916Z,7.01
2023-03-06T02:00:15.426Z,7.00
2023-03-06T02:02:43.563Z,6.97
2023-03-06T02:05:10.245Z,6.95
2023-03-06T02:07:37.200Z,6.93
2023-03-06T02:10:04.594Z,6.93
2023-03-06T02:12:31.256Z,6.91
2023-03-06T02:14:57.893Z,6.91
2023-03-06T02:17:24.639Z,6.88
2023-03-06T02:20:10.944Z,6.87
2023-03-06T02:22:46.519Z,6.87
2023-03-06T02:25:28.178Z,6.90
2023-03-06T02:27:54.860Z,6.88
2023-03-06T02:30:21.725Z,6.89
2023-03-06T02:32:48.359Z,6.85
2023-03-06T02:35:28.190Z,6.83
2023-03-06T02:37:54.839Z,6.79
2023-03-06T02:40:21.686Z,6.81
2023-03-06T02:42:49.708Z,6.76
2023-03-06T02:45:20.236Z,6.76
2023-03-06T02:47:46.854Z,6.81
2023-03-06T02:50:13.522Z,6.79
2023-03-06T02:52:40.144Z,6.79
2023-03-06T02:55:07.249Z,6.83
2023-03-06T02:57:33.882Z,6.83
2023-03-06T03:00:00.504Z,6.82
2023-03-06T03:02:27.233Z,6.82
2023-03-06T03:04:54.036Z,6.76
2023-03-06T03:07:21.847Z,6.75
2023-03-06T03:09:48.518Z,6.77
2023-03-06T03:12:15.147Z,6.73
2023-03-06T03:14:41.832Z,6.68
2023-03-06T03:17:08.443Z,6.73
2023-03-06T03:19:35.052Z,6.69
2023-03-06T03:22:01.639Z,6.65
2023-03-06T03:24:28.282Z,6.67
2023-03-06T03:26:54.932Z,6.64
2023-03-06T03:29:21.779Z,6.62
2023-03-06T03:31:48.553Z,6.62
2023-03-06T03:34:15.676Z,6.61
2023-03-06T03:36:42.386Z,6.60
2023-03-06T03:39:09.037Z,6.62
2023-03-06T03:41:35.629Z,6.61
2023-03-06T03:44:02.257Z,6.58
2023-03-06T03:46:28.969Z,6.57
2023-03-06T03:48:55.977Z,6.58
2023-03-06T03:51:22.657Z,6.60
2023-03-06T03:53:49.320Z,6.58
2023-03-06T03:56:16.097Z,6.54
2023-03-06T03:58:42.777Z,6.58
2023-03-06T04:01:09.403Z,6.59
2023-03-06T04:03:36.129Z,6.61
2023-03-06T04:06:02.862Z,6.60
2023-03-06T04:08:29.562Z,6.65
2023-03-06T04:10:56.197Z,6.64
2023-03-06T04:13:24.540Z,6.70
2023-03-06T04:15:52.087Z,6.68
2023-03-06T04:18:18.918Z,6.66
2023-03-06T04:20:45.685Z,6.72
2023-03-06T04:23:12.336Z,6.74
2023-03-06T04:25:39.014Z,6.73
2023-03-06T04:28:05.811Z,6.76
2023-03-06T04:30:32.679Z,6.72
2023-03-06T04:32:59.359Z,6.77
2023-03-06T04:35:25.986Z,6.72
2023-03-06T04:37:52.694Z,6.67
2023-03-06T04:40:21.099Z,6.68
2023-03-06T04:42:48.147Z,6.69
2023-03-06T04:45:15.253Z,6.68
2023-03-06T04:47:42.344Z,6.65
2023-03-06T04:50:09.803Z,6.65
2023-03-06T04:52:36.444Z,6.70
2023-03-06T04:55:03.408Z,6.70
2023-03-06T04:57:30.033Z,6.68
2023-03-06T04:59:56.753Z,6.67
2023-03-06T05:02:23.470Z,6.66
2023-03-06T05:04:50.138Z,6.61
2023-03-06T05:07:16.811Z,6.59
2023-03-06T05:09:43.435Z,6.58
2023-03-06T05:12:10.068Z,6.56
2023-03-06T05:14:36.684Z,6.55
2023-03-06T05:17:03.319Z,6.53
2023-03-06T05:19:30.054Z,6.48
2023-03-06T05:21:56.675Z,6.49
2023-03-06T05:24:23.309Z,6.50
2023-03-06T05:26:49.981Z,6.53
2023-03-06T05:29:16.654Z,6.50
2023-03-06T05:31:43.972Z,6.51
2023-03-06T05:34:13.468Z,6.47
2023-03-06T05:36:40.070Z,6.49
2023-03-06T05:39:07.092Z,6.51
2023-03-06T05:41:33.788Z,6.54
2023-03-06T05:44:00.377Z,6.54
2023-03-06T05:46:28.142Z,6.54
2023-03-06T05:48:54.944Z,6.55
2023-03-06T05:51:21.600Z,6.55
2023-03-06T05:53:49.613Z,6.58
2023-03-06T05:56:16.271Z,6.61
2023-03-06T05:58:42.947Z,6.57
2023-03-06T06:01:13.796Z,6.58
2023-03-06T06:03:40.603Z,6.60
2023-03-06T06:06:08.479Z,6.62
2023-03-06T06:08:35.509Z,6.64
2023-03-06T06:11:02.189Z,6.62
2023-03-06T06:13:28.798Z,6.61
2023-03-06T06:15:55.446Z,6.65
2023-03-06T06:18:22.139Z,6.70
2023-03-06T06:20:48.799Z,6.70
2023-03-06T06:23:15.483Z,6.72
2023-03-06T06:25:42.173Z,6.76
2023-03-06T06:28:08.832Z,6.70
2023-03-06T06:30:35.555Z,6.78
2023-03-06T06:33:03.203Z,6.82
2023-03-06T06:35:29.891Z,6.88
2023-03-06T06:37:56.583Z,6.89
2023-03-06T06:40:23.247Z,6.91
2023-03-06T06:42:49.972Z,6.97
2023-03-06T06:45:16.643Z,6.95
2023-03-06T06:47:43.279Z,6.93
2023-03-06T06:50:14.050Z,6.99
2023-03-06T06:52:40.740Z,7.12
2023-03-06T06:55:07.982Z,7.14
2023-03-06T06:57:34.652Z,7.21
2023-03-06T07:00:03.132Z,7.33
2023-03-06T07:02:29.804Z,7.37
2023-03-06T07:05:04.215Z,7.48
2023-03-06T07:07:34.073Z,7.55
2023-03-06T07:10:00.796Z,7.60
2023-03-06T07:12:27.443Z,7.80
2023-03-06T07:14:54.081Z,7.94
2023-03-06T07:17:20.748Z,7.94
2023-03-06T07:19:47.412Z,8.06
2023-03-06T07:22:14.085Z,8.18
2023-03-06T07:24:40.688Z,8.26
2023-03-06T07:27:08.442Z,8.42
2023-03-06T07:29:35.060Z,8.43
2023-03-06T07:32:01.757Z,8.52
2023-03-06T07:34:28.418Z,8.61
2023-03-06T07:36:55.098Z,8.73
2023-03-06T07:39:22.093Z,8.78
2023-03-06T07:41:48.714Z,8.86
2023-03-06T07:44:15.428Z,8.93
2023-03-06T07:46:42.200Z,9.00
2023-03-06T07:49:08.837Z,9.05
2023-03-06T07:51:35.802Z,9.14
2023-03-06T07:54:02.477Z,9.21
2023-03-06T07:56:29.206Z,9.16
2023-03-06T07:58:57.025Z,9.26
2023-03-06T08:01:23.751Z,9.35
2023-03-06T08:03:50.566Z,9.41
2023-03-06T08:06:21.728Z,9.47
2023-03-06T08:08:48.667Z,9.46
2023-03-06T08:11:16.194Z,9.41
2023-03-06T08:13:43.054Z,9.34
2023-03-06T08:16:10.024Z,9.34
2023-03-06T08:18:36.963Z,9.38
2023-03-06T08:21:04.939Z,9.41
2023-03-06T08:23:31.656Z,9.48
2023-03-06T08:25:59.092Z,9.44
2023-03-06T08:28:25.923Z,9.64
2023-03-06T08:30:52.587Z,9.83
2023-03-06T08:33:19.275Z,9.89
2023-03-06T08:35:45.972Z,9.84
2023-03-06T08:38:12.707Z,9.84
2023-03-06T08:40:39.337Z,9.86
2023-03-06T08:43:09.135Z,9.97
2023-03-06T08:45:35.812Z,10.06
2023-03-06T08:48:02.433Z,10.18
2023-03-06T08:50:29.377Z,10.29
2023-03-06T08:52:56.005Z,10.29
2023-03-06T08:55:22.763Z,10.39
2023-03-06T08:57:49.422Z,10.53
2023-03-06T09:00:16.850Z,10.61
2023-03-06T09:02:43.666Z,10.75
2023-03-06T09:05:10.591Z,10.81
2023-03-06T09:07:37.291Z,10.93
2023-03-06T09:10:04.114Z,10.98
2023-03-06T09:12:32.676Z,10.68
2023-03-06T09:15:04.938Z,10.73
2023-03-06T09:17:31.661Z,10.74
2023-03-06T09:19:58.378Z,10.73
2023-03-06T09:22:25.108Z,10.81
2023-03-06T09:24:51.774Z,10.92
2023-03-06T09:27:18.443Z,10.89
2023-03-06T09:29:45.112Z,10.86
2023-03-06T09:32:12.235Z,10.82
2023-03-06T09:34:38.997Z,10.78
2023-03-06T09:37:05.644Z,10.74
2023-03-06T09:39:32.338Z,10.72
2023-03-06T09:42:01.293Z,10.22
2023-03-06T09:44:32.085Z,10.27
2023-03-06T09:47:11.083Z,10.33
2023-03-06T09:49:49.649Z,10.27
2023-03-06T09:52:26.692Z,10.14
2023-03-06T09:55:14.143Z,10.40
2023-03-06T09:57:51.154Z,10.48
2023-03-06T10:00:39.767Z,10.39
2023-03-06T10:03:25.071Z,10.49
2023-03-06T10:06:02.972Z,10.64
2023-03-06T10:08:35.554Z,10.78
2023-03-06T10:11:03.774Z,10.87
2023-03-06T10:13:43.152Z,10.85
2023-03-06T10:16:27.896Z,10.96
2023-03-06T10:18:55.462Z,10.96
2023-03-06T10:21:59.212Z,11.02
2023-03-06T10:24:52.945Z,11.09
2023-03-06T10:28:12.130Z,11.09
2023-03-06T10:30:42.429Z,11.12
2023-03-06T10:33:21.237Z,11.10
2023-03-06T10:35:48.548Z,11.14
2023-03-06T10:38:22.233Z,11.16
2023-03-06T10:41:15.013Z,11.25
2023-03-06T10:43:45.885Z,11.28
2023-03-06T10:46:13.831Z,11.27
2023-03-06T10:48:42.254Z,11.20
2023-03-06T10:51:17.780Z,11.29
2023-03-06T10:53:55.091Z,11.14
2023-03-06T10:56:31.015Z,11.01
2023-03-06T10:59:19.837Z,11.09
2023-03-06T11:01:48.122Z,11.19
2023-03-06T11:04:31.608Z,11.19
2023-03-06T11:07:06.235Z,11.21
2023-03-06T11:09:33.149Z,11.31
2023-03-06T11:12:51.090Z,11.42
2023-03-06T11:15:20.160Z,11.41
2023-03-06T11:17:49.526Z,11.46
2023-03-06T11:20:24.178Z,11.51
2023-03-06T11:22:59.630Z,11.24
2023-03-06T11:25:46.031Z,11.41
2023-03-06T11:28:33.781Z,11.38
2023-03-06T11:31:06.359Z,11.25
2023-03-06T11:33:35.638Z,11.17
2023-03-06T11:36:39.723Z,10.66
2023-03-06T11:39:21.418Z,10.60
2023-03-06T11:41:56.906Z,10.76
2023-03-06T11:44:45.133Z,11.06
2023-03-06T11:47:57.139Z,11.27
2023-03-06T11:50:42.699Z,11.47
2023-03-06T11:53:33.195Z,11.68
2023-03-06T11:56:18.332Z,11.80
2023-03-06T11:59:00.649Z,11.69
2023-03-06T12:01:35.375Z,11.85
2023-03-06T12:04:20.213Z,11.91
2023-03-06T12:07:07.935Z,12.00
2023-03-06T12:09:34.510Z,12.07
2023-03-06T12:12:32.164Z,12.14
2023-03-06T12:15:04.713Z,12.30
2023-03-06T12:17:37.002Z,12.25
2023-03-06T12:20:14.150Z,12.00
2023-03-06T12:22:53.367Z,12.15
2023-03-06T12:25:31.569Z,12.18
2023-03-06T12:28:13.287Z,12.26
2023-03-06T12:31:05.629Z,12.31
2023-03-06T12:33:38.082Z,12.39
2023-03-06T12:36:29.097Z,12.44
2023-03-06T12:39:11.042Z,12.47
2023-03-06T12:41:50.289Z,12.49
2023-03-06T12:44:59.554Z,12.67
2023-03-06T12:47:27.485Z,12.75
2023-03-06T12:49:59.351Z,12.76
2023-03-06T12:52:30.509Z,12.82
2023-03-06T12:55:01.049Z,12.81
2023-03-06T12:57:27.671Z,12.84
2023-03-06T12:59:54.339Z,12.98
2023-03-06T13:02:36.092Z,12.99
2023-03-06T13:05:06.537Z,12.99
2023-03-06T13:07:35.746Z,13.00
2023-03-06T13:10:30.900Z,13.03
2023-03-06T13:13:04.127Z,13.09
2023-03-06T13:15:38.525Z,13.02
2023-03-06T13:18:37.248Z,13.00
2023-03-06T13:21:03.964Z,13.05
2023-03-06T13:23:30.472Z,12.98
2023-03-06T13:25:58.367Z,13.04
2023-03-06T13:28:25.985Z,13.14
2023-03-06T13:30:53.373Z,13.22
2023-03-06T13:33:40.151Z,13.27
2023-03-06T13:36:29.577Z,13.24
2023-03-06T13:39:23.189Z,13.16
2023-03-06T13:41:52.402Z,13.15
2023-03-06T13:44:24.821Z,13.19
2023-03-06T13:47:08.041Z,13.09
2023-03-06T13:49:34.730Z,12.99
2023-03-06T13:52:10.677Z,13.02
2023-03-06T13:54:52.700Z,13.10
2023-03-06T13:57:25.438Z,13.07
2023-03-06T14:00:13.232Z,13.09
2023-03-06T14:02:47.242Z,13.10
2023-03-06T14:05:14.583Z,13.19
2023-03-06T14:07:48.007Z,13.13
2023-03-06T14:10:14.566Z,13.21
2023-03-06T14:12:43.036Z,13.19
2023-03-06T14:15:16.538Z,13.07
2023-03-06T14:17:52.907Z,13.00
2023-03-06T14:20:19.888Z,13.04
2023-03-06T14:22:46.623Z,13.14
2023-03-06T14:25:20.671Z,13.06
2023-03-06T14:27:48.983Z,13.11
2023-03-06T14:30:19.984Z,13.12
2023-03-06T14:32:47.090Z,13.16
2023-03-06T14:35:28.383Z,13.07
2023-03-06T14:38:00.733Z,13.11
2023-03-06T14:40:40.889Z,13.08
2023-03-06T14:43:12.283Z,12.99
2023-03-06T14:45:51.325Z,13.09
2023-03-06T14:48:18.137Z,13.09
2023-03-06T14:50:51.921Z,13.01
2023-03-06T14:53:19.447Z,13.03
2023-03-06T14:55:53.957Z,13.02
2023-03-06T14:58:25.917Z,13.08
2023-03-06T15:00:52.859Z,13.02
2023-03-06T15:03:46.409Z,13.12
2023-03-06T15:06:20.785Z,12.44
2023-03-06T15:08:48.697Z,12.57
2023-03-06T15:11:15.352Z,12.70
2023-03-06T15:13:41.982Z,12.84
2023-03-06T15:16:23.650Z,12.73
2023-03-06T15:19:00.804Z,12.84
2023-03-06T15:21:35.301Z,12.87
2023-03-06T15:24:01.902Z,12.94
2023-03-06T15:26:38.366Z,12.91
2023-03-06T15:29:11.101Z,13.04
2023-03-06T15:31:39.071Z,12.94
2023-03-06T15:34:08.346Z,12.54
2023-03-06T15:36:56.044Z,12.40
2023-03-06T15:39:31.519Z,12.29
2023-03-06T15:42:20.080Z,12.42
2023-03-06T15:44:51.021Z,12.52
2023-03-06T15:47:17.626Z,12.48
2023-03-06T15:49:44.420Z,12.53
2023-03-06T15:52:11.240Z,12.69
2023-03-06T15:54:38.224Z,12.44
2023-03-06T15:57:05.807Z,12.59
2023-03-06T15:59:32.453Z,12.61
2023-03-06T16:02:02.958Z,12.64
2023-03-06T16:04:30.387Z,12.51
2023-03-06T16:06:57.036Z,12.59
2023-03-06T16:09:23.673Z,12.62
2023-03-06T16:11:50.282Z,12.65
2023-03-06T16:14:22.846Z,12.78
2023-03-06T16:16:50.704Z,12.80
2023-03-06T16:19:27.752Z,12.75
2023-03-06T16:21:55.580Z,12.85
2023-03-06T16:24:22.261Z,12.86
2023-03-06T16:26:49.981Z,12.81
2023-03-06T16:29:20.824Z,12.78
2023-03-06T16:31:47.581Z,12.77
2023-03-06T16:34:14.496Z,12.73
2023-03-06T16:36:41.212Z,12.76
2023-03-06T16:39:13.123Z,12.63
2023-03-06T16:41:39.775Z,12.43
2023-03-06T16:44:06.423Z,12.38
2023-03-06T16:46:33.136Z,12.40
2023-03-06T16:48:59.766Z,12.43
2023-03-06T16:51:26.466Z,12.49
2023-03-06T16:53:53.237Z,12.48
2023-03-06T16:56:20.102Z,12.54
2023-03-06T16:58:47.041Z,12.46
2023-03-06T17:01:17.621Z,12.43
2023-03-06T17:03:45.078Z,12.35
2023-03-06T17:06:21.324Z,12.36
2023-03-06T17:08:48.085Z,12.37
2023-03-06T17:11:14.799Z,12.33
2023-03-06T17:13:41.457Z,12.01
2023-03-06T17:16:08.911Z,11.78
2023-03-06T17:18:35.598Z,11.53
2023-03-06T17:21:02.292Z,11.55
2023-03-06T17:23:29.060Z,11.48
2023-03-06T17:26:09.718Z,11.37
2023-03-06T17:28:36.726Z,11.26
2023-03-06T17:31:10.881Z,11.38
2023-03-06T17:33:37.611Z,11.34
2023-03-06T17:36:04.470Z,10.97
2023-03-06T17:38:31.180Z,10.98
2023-03-06T17:41:02.380Z,10.94
2023-03-06T17:43:29.029Z,10.88
2023-03-06T17:45:55.665Z,10.81
2023-03-06T17:48:22.295Z,10.56
2023-03-06T17:50:57.978Z,10.68
2023-03-06T17:53:24.609Z,10.60
2023-03-06T17:55:51.256Z,10.66
2023-03-06T17:58:17.910Z,10.80
2023-03-06T18:00:44.554Z,10.70
2023-03-06T18:03:11.275Z,10.79
2023-03-06T18:05:37.991Z,10.82
2023-03-06T18:08:05.263Z,10.61
2023-03-06T18:10:31.900Z,10.57
2023-03-06T18:12:58.581Z,10.52
2023-03-06T18:15:25.299Z,10.51
2023-03-06T18:17:51.982Z,10.65
2023-03-06T18:20:20.953Z,10.64
2023-03-06T18:22:47.662Z,10.55
2023-03-06T18:25:14.261Z,10.62
2023-03-06T18:27:40.896Z,10.69
2023-03-06T18:30:08.112Z,10.56
2023-03-06T18:32:35.136Z,10.56
2023-03-06T18:35:01.851Z,10.50
2023-03-06T18:37:28.474Z,10.66
2023-03-06T18:39:55.061Z,10.68
2023-03-06T18:42:21.659Z,10.40
2023-03-06T18:44:48.280Z,10.40
2023-03-06T18:47:15.212Z,10.14
2023-03-06T18:49:44.119Z,10.21
2023-03-06T18:52:11.223Z,10.31
2023-03-06T18:54:37.960Z,10.40
2023-03-06T18:57:04.652Z,10.27
2023-03-06T18:59:31.290Z,10.14
2023-03-06T19:01:57.976Z,10.26
2023-03-06T19:04:25.510Z,10.31
2023-03-06T19:06:52.146Z,10.20
2023-03-06T19:09:18.835Z,10.30
2023-03-06T19:11:45.481Z,10.34
2023-03-06T19:14:12.582Z,10.37
2023-03-06T19:16:39.299Z,10.37
2023-03-06T19:19:06.002Z,10.29
2023-03-06T19:21:32.685Z,10.39
2023-03-06T19:23:59.416Z,10.38
2023-03-06T19:26:26.142Z,10.36
2023-03-06T19:28:53.989Z,10.34
2023-03-06T19:31:22.268Z,10.10
2023-03-06T19:33:49.234Z,10.07
2023-03-06T19:36:16.451Z,9.88
2023-03-06T19:38:43.215Z,9.65
2023-03-06T19:41:12.920Z,9.71
2023-03-06T19:43:42.703Z,9.58
2023-03-06T19:46:13.095Z,9.26
2023-03-06T19:48:40.856Z,8.93
2023-03-06T19:51:07.589Z,8.68
2023-03-06T19:53:34.503Z,8.63
2023-03-06T19:56:08.643Z,8.97
2023-03-06T19:58:35.246Z,9.11
2023-03-06T20:01:13.884Z,9.10
2023-03-06T20:03:40.636Z,8.60
2023-03-06T20:06:07.525Z,8.46
2023-03-06T20:08:34.778Z,8.71
2023-03-06T20:11:01.429Z,8.82
2023-03-06T20:13:28.056Z,9.05
2023-03-06T20:15:54.757Z,8.34
2023-03-06T20:18:21.458Z,8.27
2023-03-06T20:21:00.664Z,8.30
2023-03-06T20:23:27.488Z,8.38
2023-03-06T20:25:54.098Z,8.42
2023-03-06T20:28:21.181Z,8.32
2023-03-06T20:30:47.971Z,8.56
2023-03-06T20:33:14.589Z,8.41
2023-03-06T20:35:41.871Z,8.50
2023-03-06T20:38:09.059Z,8.47
2023-03-06T20:40:39.497Z,8.21
2023-03-06T20:43:06.282Z,8.37
2023-03-06T20:45:33.036Z,8.68
2023-03-06T20:47:59.677Z,8.59
2023-03-06T20:50:26.360Z,8.64
2023-03-06T20:52:54.449Z,8.84
2023-03-06T20:55:21.129Z,9.02
2023-03-06T20:57:51.360Z,9.11
2023-03-06T21:00:18.734Z,9.10
2023-03-06T21:02:45.489Z,9.18
2023-03-06T21:05:12.323Z,9.29
2023-03-06T21:07:39.931Z,9.20
2023-03-06T21:10:07.287Z,9.28
2023-03-06T21:12:33.928Z,9.30
2023-03-06T21:15:00.541Z,9.32
2023-03-06T21:17:27.466Z,9.44
2023-03-06T21:19:54.125Z,9.38
2023-03-06T21:22:20.741Z,9.40
2023-03-06T21:24:47.375Z,9.39
2023-03-06T21:27:14.110Z,9.34
2023-03-06T21:29:40.872Z,9.35
2023-03-06T21:32:07.778Z,9.29
2023-03-06T21:34:34.433Z,9.22
2023-03-06T21:37:01.111Z,9.19
2023-03-06T21:39:27.880Z,9.26
2023-03-06T21:41:54.572Z,9.24
2023-03-06T21:44:21.234Z,9.15
2023-03-06T21:46:47.883Z,9.13
2023-03-06T21:49:17.490Z,9.06
2023-03-06T21:51:44.243Z,8.98
2023-03-06T21:54:10.883Z,8.90
2023-03-06T21:56:37.561Z,8.93
2023-03-06T21:59:04.264Z,8.90
2023-03-06T22:01:30.938Z,8.84
2023-03-06T22:03:57.688Z,8.87
2023-03-06T22:06:25.532Z,8.72
2023-03-06T22:08:52.366Z,8.72
2023-03-06T22:11:20.193Z,8.70
2023-03-06T22:13:46.893Z,8.73
2023-03-06T22:16:13.822Z,8.75
2023-03-06T22:18:43.533Z,8.74
2023-03-06T22:21:10.860Z,8.75
2023-03-06T22:23:37.629Z,8.73
2023-03-06T22:26:05.078Z,8.76
2023-03-06T22:28:32.375Z,8.75
2023-03-06T22:31:09.822Z,8.58
2023-03-06T22:33:36.581Z,8.57
2023-03-06T22:36:04.624Z,8.56
2023-03-06T22:38:32.155Z,8.58
2023-03-06T22:40:58.882Z,8.57
2023-03-06T22:43:25.545Z,8.56
2023-03-06T22:45:52.272Z,8.63
2023-03-06T22:48:19.778Z,8.59
2023-03-06T22:50:46.568Z,8.55
2023-03-06T22:53:13.208Z,8.52
2023-03-06T22:55:39.841Z,8.53
2023-03-06T22:58:06.533Z,8.54
2023-03-06T23:00:33.242Z,8.58
2023-03-06T23:02:59.937Z,8.56
2023-03-06T23:05:29.164Z,8.55
2023-03-06T23:07:56.169Z,8.61
2023-03-06T23:10:22.830Z,8.60
2023-03-06T23:12:49.685Z,8.62
2023-03-06T23:15:16.443Z,8.62
2023-03-06T23:17:43.121Z,8.63
2023-03-06T23:20:10.561Z,8.59
2023-03-06T23:22:37.218Z,8.57
2023-03-06T23:25:04.008Z,8.57
2023-03-06T23:27:30.646Z,8.44
2023-03-06T23:29:57.317Z,8.44
2023-03-06T23:32:24.061Z,8.44
2023-03-06T23:34:50.973Z,8.57
2023-03-06T23:37:17.690Z,8.55
2023-03-06T23:39:44.369Z,8.58
2023-03-06T23:42:11.028Z,8.54
2023-03-06T23:44:37.656Z,8.60
2023-03-06T23:47:04.479Z,8.63
2023-03-06T23:49:31.165Z,8.53
2023-03-06T23:51:57.836Z,8.50
2023-03-06T23:54:24.474Z,8.51
2023-03-06T23:56:51.074Z,8.52
2023-03-06T23:59:17.726Z,8.50
